Time;durP1;ratioP1;P1;durP2;ratioP2;P2;SDS_P1;SDS_P2;PMS_P1;PMS_P2;Temp;Humidity;BMP_temperature;BMP_pressure;BME280_temperature;BME280_humidity;BME280_pressure;Samples;Min_cycle;Max_cycle;Signal;HPM_P1;HPM_P2
2023/02/06 00:01:47;;;;;;;62.60;31.83;;;;;;;;;;5094557;28;20732;-75
2023/02/06 00:04:15;;;;;;;61.80;32.40;;;;;;;;;;5094440;28;20285;-76
2023/02/06 00:06:42;;;;;;;90.03;50.43;;;;;;;;;;5094078;28;20290;-76
2023/02/06 00:09:10;;;;;;;45.37;26.33;;;;;;;;;;5094846;28;20228;-76
2023/02/06 00:11:37;;;;;;;27.03;12.23;;;;;;;;;;5093895;28;20320;-76
2023/02/06 00:14:05;;;;;;;34.17;17.87;;;;;;;;;;5094404;28;20660;-75
2023/02/06 00:16:34;;;;;;;24.37;14.13;;;;;;;;;;5094193;28;20202;-75
2023/02/06 00:19:02;;;;;;;29.07;14.13;;;;;;;;;;5094086;28;20496;-75
2023/02/06 00:21:29;;;;;;;23.60;9.97;;;;;;;;;;5094204;28;20300;-76
2023/02/06 00:23:58;;;;;;;30.80;19.27;;;;;;;;;;5093753;28;20690;-76
2023/02/06 00:26:26;;;;;;;53.57;38.07;;;;;;;;;;5093678;28;20322;-75
2023/02/06 00:28:53;;;;;;;53.80;33.93;;;;;;;;;;5094516;28;20639;-76
2023/02/06 00:31:20;;;;;;;37.17;23.50;;;;;;;;;;5093762;28;20324;-76
2023/02/06 00:33:49;;;;;;;37.60;18.83;;;;;;;;;;5093797;28;20742;-76
2023/02/06 00:36:16;;;;;;;41.03;24.77;;;;;;;;;;5093847;28;20285;-76
2023/02/06 00:38:43;;;;;;;31.53;16.07;;;;;;;;;;5093907;28;20297;-76
2023/02/06 00:41:10;;;;;;;37.37;18.97;;;;;;;;;;5093431;28;20231;-76
2023/02/06 00:43:38;;;;;;;43.43;25.33;;;;;;;;;;5094262;28;20277;-76
2023/02/06 00:46:05;;;;;;;26.43;13.63;;;;;;;;;;5092408;28;20328;-76
2023/02/06 00:48:32;;;;;;;27.60;12.47;;;;;;;;;;5093495;28;20297;-75
2023/02/06 00:51:01;;;;;;;30.23;13.23;;;;;;;;;;5093090;28;20320;-76
2023/02/06 00:53:28;;;;;;;50.43;26.50;;;;;;;;;;5093555;28;20193;-75
2023/02/06 00:55:56;;;;;;;65.20;35.80;;;;;;;;;;5093204;28;20235;-76
2023/02/06 00:58:23;;;;;;;27.90;13.27;;;;;;;;;;5093525;28;20670;-76
2023/02/06 01:00:50;;;;;;;26.27;12.27;;;;;;;;;;5093974;28;20290;-75
2023/02/06 01:03:17;;;;;;;33.43;18.43;;;;;;;;;;5092755;28;20213;-75
2023/02/06 01:05:44;;;;;;;21.30;8.60;;;;;;;;;;5093504;28;20217;-75
2023/02/06 01:08:13;;;;;;;24.53;11.00;;;;;;;;;;5093739;28;20201;-75
2023/02/06 01:10:41;;;;;;;23.77;7.23;;;;;;;;;;5093127;28;20229;-76
2023/02/06 01:13:08;;;;;;;33.37;13.20;;;;;;;;;;5093053;28;20225;-75
2023/02/06 01:15:35;;;;;;;33.90;15.40;;;;;;;;;;5093447;28;20288;-76
2023/02/06 01:18:02;;;;;;;36.37;17.40;;;;;;;;;;5093144;28;20621;-74
2023/02/06 01:20:30;;;;;;;23.53;12.33;;;;;;;;;;5093091;28;20222;-74
2023/02/06 01:22:57;;;;;;;26.87;10.47;;;;;;;;;;5093093;28;20292;-76
2023/02/06 01:25:25;;;;;;;23.07;9.20;;;;;;;;;;5092444;28;20771;-75
2023/02/06 01:27:53;;;;;;;21.27;6.60;;;;;;;;;;5092790;28;20431;-75
2023/02/06 01:30:20;;;;;;;27.57;12.73;;;;;;;;;;5093194;28;20296;-75
2023/02/06 01:32:47;;;;;;;32.00;14.50;;;;;;;;;;5092516;28;20324;-76
2023/02/06 01:35:14;;;;;;;34.10;15.20;;;;;;;;;;5092510;28;20643;-75
2023/02/06 01:37:41;;;;;;;31.43;13.63;;;;;;;;;;5092949;28;20197;-76
2023/02/06 01:40:10;;;;;;;23.90;11.50;;;;;;;;;;5092274;28;20292;-75
2023/02/06 01:42:39;;;;;;;34.47;16.70;;;;;;;;;;5092627;28;20253;-75
2023/02/06 01:45:33;;;;;;;40.20;17.17;;;;;;;;;;5092567;28;20307;-76
2023/02/06 01:48:01;;;;;;;52.97;26.80;;;;;;;;;;5092632;28;20224;-75
2023/02/06 01:50:29;;;;;;;43.90;20.27;;;;;;;;;;5092308;28;20285;-76
2023/02/06 01:52:57;;;;;;;59.20;28.77;;;;;;;;;;5091679;28;20319;-76
2023/02/06 01:55:24;;;;;;;52.70;23.80;;;;;;;;;;5092036;28;20284;-75
2023/02/06 01:57:53;;;;;;;56.00;25.27;;;;;;;;;;5092338;28;20284;-76
2023/02/06 02:00:20;;;;;;;77.67;38.17;;;;;;;;;;5092086;28;20290;-76
2023/02/06 02:02:48;;;;;;;34.80;13.23;;;;;;;;;;5092195;28;20284;-76
2023/02/06 02:05:17;;;;;;;30.27;13.67;;;;;;;;;;5092069;28;20229;-76
2023/02/06 02:07:47;;;;;;;31.50;14.73;;;;;;;;;;5092031;28;20288;-76
2023/02/06 02:10:14;;;;;;;34.13;13.17;;;;;;;;;;5092215;28;20696;-75
2023/02/06 02:12:41;;;;;;;28.37;8.70;;;;;;;;;;5091867;28;20321;-76
2023/02/06 02:15:10;;;;;;;28.87;10.77;;;;;;;;;;5091975;28;20223;-75
2023/02/06 02:17:41;;;;;;;19.27;6.40;;;;;;;;;;5092118;28;20284;-76
2023/02/06 02:20:33;;;;;;;23.43;5.83;;;;;;;;;;5092001;28;20227;-76
2023/02/06 02:23:06;;;;;;;22.87;7.80;;;;;;;;;;5081120;28;20229;-75
2023/02/06 02:26:00;;;;;;;22.23;5.37;;;;;;;;;;5091955;28;20197;-75
2023/02/06 02:28:39;;;;;;;18.57;4.03;;;;;;;;;;5091751;28;20392;-75
2023/02/06 02:31:27;;;;;;;21.63;3.93;;;;;;;;;;5091627;28;20300;-75
2023/02/06 02:34:09;;;;;;;19.77;3.63;;;;;;;;;;5089858;28;20225;-76
2023/02/06 02:36:40;;;;;;;21.03;3.90;;;;;;;;;;5082746;28;20201;-75
2023/02/06 02:39:12;;;;;;;17.03;3.63;;;;;;;;;;5073369;28;20237;-76
2023/02/06 02:41:40;;;;;;;22.40;4.30;;;;;;;;;;5071754;28;20203;-75
2023/02/06 02:44:09;;;;;;;14.30;3.97;;;;;;;;;;5071826;28;20289;-76
2023/02/06 02:46:37;;;;;;;20.37;3.23;;;;;;;;;;5071048;28;20305;-75
2023/02/06 02:49:06;;;;;;;20.87;3.70;;;;;;;;;;5070965;28;20292;-76
2023/02/06 02:51:34;;;;;;;19.43;4.10;;;;;;;;;;5071149;28;20438;-75
2023/02/06 02:54:02;;;;;;;23.13;3.70;;;;;;;;;;5071093;28;20659;-75
2023/02/06 02:56:32;;;;;;;20.07;3.77;;;;;;;;;;5071113;28;20224;-76
2023/02/06 02:59:01;;;;;;;16.90;3.67;;;;;;;;;;5070826;28;20293;-76
2023/02/06 03:01:30;;;;;;;18.43;4.07;;;;;;;;;;5070935;28;20681;-74
2023/02/06 03:03:59;;;;;;;16.90;3.40;;;;;;;;;;5071591;28;20745;-75
2023/02/06 03:06:32;;;;;;;19.00;3.63;;;;;;;;;;5070982;28;20228;-76
2023/02/06 03:09:00;;;;;;;18.03;3.97;;;;;;;;;;5073722;28;20289;-75
2023/02/06 03:11:29;;;;;;;24.23;3.90;;;;;;;;;;5080600;28;20658;-75
2023/02/06 03:13:58;;;;;;;18.23;4.00;;;;;;;;;;5095906;28;20223;-76
2023/02/06 03:16:27;;;;;;;22.00;3.60;;;;;;;;;;5095422;28;20674;-76
2023/02/06 03:18:57;;;;;;;19.90;3.97;;;;;;;;;;5095344;28;20200;-76
2023/02/06 03:21:24;;;;;;;25.37;4.00;;;;;;;;;;5094804;28;20661;-75
2023/02/06 03:23:53;;;;;;;16.90;3.87;;;;;;;;;;5094991;28;20674;-76
2023/02/06 03:26:23;;;;;;;20.10;3.50;;;;;;;;;;5095389;28;20240;-76
2023/02/06 03:28:53;;;;;;;22.33;3.37;;;;;;;;;;5095419;28;20290;-76
2023/02/06 03:31:22;;;;;;;19.97;3.47;;;;;;;;;;5094931;28;20240;-76
2023/02/06 03:33:52;;;;;;;16.43;3.23;;;;;;;;;;5094827;28;20760;-75
2023/02/06 03:36:19;;;;;;;16.60;3.30;;;;;;;;;;5095122;28;20221;-75
2023/02/06 03:38:47;;;;;;;21.87;4.57;;;;;;;;;;5094959;28;20547;-76
2023/02/06 03:41:15;;;;;;;19.23;3.40;;;;;;;;;;5095156;28;20298;-75
2023/02/06 03:43:43;;;;;;;17.87;3.50;;;;;;;;;;5094651;28;20723;-76
2023/02/06 03:46:13;;;;;;;20.67;3.07;;;;;;;;;;5094780;28;20280;-75
2023/02/06 03:48:42;;;;;;;23.50;3.13;;;;;;;;;;5094522;28;20229;-76
2023/02/06 03:51:12;;;;;;;17.93;3.53;;;;;;;;;;5094626;28;20200;-76
2023/02/06 03:53:40;;;;;;;15.90;3.70;;;;;;;;;;5094956;28;20328;-75
2023/02/06 03:56:11;;;;;;;20.10;3.43;;;;;;;;;;5094752;28;20196;-75
2023/02/06 03:58:38;;;;;;;11.10;2.87;;;;;;;;;;5094934;28;20227;-76
2023/02/06 04:01:06;;;;;;;13.80;3.03;;;;;;;;;;5094436;28;20658;-77
2023/02/06 04:03:35;;;;;;;18.80;3.80;;;;;;;;;;5094304;28;20282;-74
2023/02/06 04:06:02;;;;;;;19.03;3.57;;;;;;;;;;5094152;28;20286;-76
2023/02/06 04:08:30;;;;;;;16.33;3.33;;;;;;;;;;5094992;28;20192;-76
2023/02/06 04:10:57;;;;;;;12.23;3.10;;;;;;;;;;5094578;28;20290;-76
2023/02/06 04:13:24;;;;;;;27.73;11.20;;;;;;;;;;5094139;28;20317;-75
2023/02/06 04:15:51;;;;;;;24.53;9.37;;;;;;;;;;5094055;28;20234;-75
2023/02/06 04:18:18;;;;;;;24.80;9.77;;;;;;;;;;5094241;28;20266;-76
2023/02/06 04:20:47;;;;;;;22.20;8.70;;;;;;;;;;5094140;28;20286;-75
2023/02/06 04:23:14;;;;;;;25.77;5.77;;;;;;;;;;5094182;28;20293;-76
2023/02/06 04:25:41;;;;;;;16.37;4.63;;;;;;;;;;5094202;28;20325;-75
2023/02/06 04:28:08;;;;;;;27.30;5.27;;;;;;;;;;5093934;28;20304;-75
2023/02/06 04:30:36;;;;;;;18.63;3.83;;;;;;;;;;5094410;28;20291;-75
2023/02/06 04:33:03;;;;;;;21.43;4.97;;;;;;;;;;5093403;28;20323;-75
2023/02/06 04:35:30;;;;;;;23.60;4.43;;;;;;;;;;5094083;28;20636;-75
2023/02/06 04:37:59;;;;;;;20.33;4.70;;;;;;;;;;5093967;28;20743;-76
2023/02/06 04:40:26;;;;;;;26.87;5.00;;;;;;;;;;5093282;28;20297;-76
2023/02/06 04:42:53;;;;;;;22.80;4.13;;;;;;;;;;5093652;28;20239;-75
2023/02/06 04:45:20;;;;;;;22.87;4.10;;;;;;;;;;5094340;28;20289;-75
2023/02/06 04:47:48;;;;;;;17.10;3.43;;;;;;;;;;5093192;28;20293;-75
2023/02/06 04:50:16;;;;;;;21.93;3.67;;;;;;;;;;5093542;28;20198;-75
2023/02/06 04:52:43;;;;;;;20.00;3.70;;;;;;;;;;5093676;28;20262;-75
2023/02/06 04:55:12;;;;;;;22.20;3.27;;;;;;;;;;5093370;28;20199;-75
2023/02/06 04:57:39;;;;;;;18.73;3.77;;;;;;;;;;5093849;28;20294;-76
2023/02/06 05:00:08;;;;;;;19.37;3.83;;;;;;;;;;5093524;28;20203;-75
2023/02/06 05:02:38;;;;;;;17.40;3.40;;;;;;;;;;5092781;28;20200;-76
2023/02/06 05:05:06;;;;;;;22.20;4.43;;;;;;;;;;5093423;28;20393;-76
2023/02/06 05:07:33;;;;;;;18.00;4.30;;;;;;;;;;5093217;28;20289;-76
2023/02/06 05:10:00;;;;;;;16.87;4.37;;;;;;;;;;5093178;28;20290;-75
2023/02/06 05:12:29;;;;;;;26.30;4.80;;;;;;;;;;5092638;28;20268;-75
2023/02/06 05:14:56;;;;;;;13.30;4.20;;;;;;;;;;5092904;28;20285;-76
2023/02/06 05:17:23;;;;;;;19.60;3.60;;;;;;;;;;5092878;28;20286;-75
2023/02/06 05:19:50;;;;;;;13.43;3.40;;;;;;;;;;5092816;28;20215;-75
2023/02/06 05:22:17;;;;;;;26.73;3.87;;;;;;;;;;5093018;28;20281;-75
2023/02/06 05:24:45;;;;;;;19.30;4.30;;;;;;;;;;5092854;28;20290;-75
2023/02/06 05:27:12;;;;;;;17.13;3.90;;;;;;;;;;5092582;28;20305;-76
2023/02/06 05:29:40;;;;;;;24.60;4.33;;;;;;;;;;5093094;28;20287;-75
2023/02/06 05:32:07;;;;;;;21.43;4.60;;;;;;;;;;5091891;28;20644;-75
2023/02/06 05:34:35;;;;;;;28.20;9.33;;;;;;;;;;5092735;28;20226;-75
2023/02/06 05:37:02;;;;;;;43.33;15.47;;;;;;;;;;5092540;28;20291;-75
2023/02/06 05:39:29;;;;;;;62.43;23.00;;;;;;;;;;5092585;28;20204;-75
2023/02/06 05:41:56;;;;;;;28.47;10.17;;;;;;;;;;5092771;28;20223;-74
2023/02/06 05:44:23;;;;;;;37.37;11.53;;;;;;;;;;5092703;28;20306;-75
2023/02/06 05:46:52;;;;;;;29.73;7.93;;;;;;;;;;5092376;28;20247;-75
2023/02/06 05:49:19;;;;;;;26.13;6.03;;;;;;;;;;5092022;28;20695;-75
2023/02/06 05:51:46;;;;;;;22.70;4.30;;;;;;;;;;5092555;28;20218;-75
2023/02/06 05:54:15;;;;;;;17.37;3.93;;;;;;;;;;5092646;28;20274;-75
2023/02/06 05:56:42;;;;;;;21.57;3.77;;;;;;;;;;5092236;28;20657;-75
2023/02/06 05:59:10;;;;;;;23.53;4.17;;;;;;;;;;5091711;28;20309;-74
2023/02/06 06:01:37;;;;;;;25.43;4.40;;;;;;;;;;5092312;28;20226;-74
2023/02/06 06:04:06;;;;;;;18.93;4.10;;;;;;;;;;5092695;28;20229;-75
2023/02/06 06:06:33;;;;;;;22.37;4.50;;;;;;;;;;5092074;28;20191;-76
2023/02/06 06:09:01;;;;;;;27.27;4.70;;;;;;;;;;5091986;28;20683;-75
2023/02/06 06:11:28;;;;;;;27.93;5.17;;;;;;;;;;5092073;28;20194;-74
2023/02/06 06:13:55;;;;;;;24.97;5.73;;;;;;;;;;5091887;28;20234;-74
2023/02/06 06:16:23;;;;;;;23.00;5.50;;;;;;;;;;5091938;28;20198;-75
2023/02/06 06:18:50;;;;;;;38.53;16.23;;;;;;;;;;5091807;28;20293;-73
2023/02/06 06:21:18;;;;;;;50.03;26.63;;;;;;;;;;5091703;28;20289;-74
2023/02/06 06:23:46;;;;;;;42.57;23.53;;;;;;;;;;5091788;28;20199;-73
2023/02/06 06:26:13;;;;;;;27.50;12.40;;;;;;;;;;5091683;28;20325;-75
2023/02/06 06:28:40;;;;;;;35.93;8.70;;;;;;;;;;5091477;28;20198;-76
2023/02/06 06:31:10;;;;;;;25.17;9.07;;;;;;;;;;5091885;28;20293;-75
2023/02/06 06:33:37;;;;;;;24.33;5.70;;;;;;;;;;5091762;28;20591;-74
2023/02/06 06:36:05;;;;;;;111.67;71.00;;;;;;;;;;5091431;28;20226;-75
2023/02/06 06:38:33;;;;;;;37.30;16.47;;;;;;;;;;5091240;28;20218;-75
2023/02/06 06:41:01;;;;;;;133.80;76.00;;;;;;;;;;5080028;28;20209;-75
2023/02/06 06:43:28;;;;;;;82.77;39.83;;;;;;;;;;5085611;28;20285;-75
2023/02/06 06:45:55;;;;;;;39.10;18.97;;;;;;;;;;5070933;28;20226;-74
2023/02/06 06:48:22;;;;;;;49.17;22.50;;;;;;;;;;5073730;28;20273;-74
2023/02/06 06:50:49;;;;;;;71.13;36.00;;;;;;;;;;5080298;28;20293;-76
2023/02/06 06:53:17;;;;;;;35.07;12.33;;;;;;;;;;5078728;28;20226;-75
2023/02/06 06:55:45;;;;;;;39.30;14.13;;;;;;;;;;5090978;28;20293;-76
2023/02/06 06:58:12;;;;;;;28.50;11.27;;;;;;;;;;5090933;28;20293;-75
2023/02/06 07:00:39;;;;;;;43.43;17.03;;;;;;;;;;5091734;28;20221;-75
2023/02/06 07:03:07;;;;;;;36.67;13.03;;;;;;;;;;5091515;28;20290;-75
2023/02/06 07:05:35;;;;;;;36.73;13.17;;;;;;;;;;5091454;28;20281;-75
2023/02/06 07:08:02;;;;;;;34.13;9.37;;;;;;;;;;5091311;28;20301;-75
2023/02/06 07:10:29;;;;;;;37.30;9.43;;;;;;;;;;5091516;28;20281;-75
2023/02/06 07:12:57;;;;;;;48.33;20.63;;;;;;;;;;5090807;28;20286;-76
2023/02/06 07:15:25;;;;;;;48.77;17.63;;;;;;;;;;5091710;28;20222;-75
2023/02/06 07:17:52;;;;;;;64.10;30.00;;;;;;;;;;5091787;28;20288;-75
2023/02/06 07:20:19;;;;;;;67.23;31.20;;;;;;;;;;5091330;28;20681;-74
2023/02/06 07:22:49;;;;;;;63.17;24.33;;;;;;;;;;5091531;28;20229;-75
2023/02/06 07:25:16;;;;;;;49.37;18.53;;;;;;;;;;5091196;28;20222;-75
2023/02/06 07:27:43;;;;;;;45.87;19.40;;;;;;;;;;5090981;28;20294;-74
2023/02/06 07:30:12;;;;;;;55.40;22.50;;;;;;;;;;5091447;28;20293;-75
2023/02/06 07:32:40;;;;;;;71.50;27.17;;;;;;;;;;5091363;28;20289;-75
2023/02/06 07:35:07;;;;;;;40.73;14.17;;;;;;;;;;5091212;28;20324;-76
2023/02/06 07:37:34;;;;;;;41.87;12.77;;;;;;;;;;5091317;28;20282;-75
2023/02/06 07:40:02;;;;;;;36.50;15.43;;;;;;;;;;5091163;28;20285;-76
2023/02/06 07:42:29;;;;;;;49.50;14.20;;;;;;;;;;5090950;28;20250;-75
2023/02/06 07:44:56;;;;;;;40.67;13.07;;;;;;;;;;5091251;28;20305;-75
2023/02/06 07:47:24;;;;;;;39.50;12.17;;;;;;;;;;5091070;28;20289;-75
2023/02/06 07:49:52;;;;;;;35.90;10.67;;;;;;;;;;5091438;28;20289;-75
2023/02/06 07:52:21;;;;;;;44.33;13.87;;;;;;;;;;5091273;28;20190;-75
2023/02/06 07:54:48;;;;;;;38.67;15.50;;;;;;;;;;5093037;28;20236;-76
2023/02/06 07:57:15;;;;;;;43.13;14.27;;;;;;;;;;5094574;28;20285;-75
2023/02/06 07:59:42;;;;;;;33.87;14.23;;;;;;;;;;5095019;28;20223;-75
2023/02/06 08:02:10;;;;;;;84.90;42.90;;;;;;;;;;5095041;28;20222;-74
2023/02/06 08:04:38;;;;;;;78.07;33.30;;;;;;;;;;5094344;28;20638;-75
2023/02/06 08:07:08;;;;;;;32.27;11.07;;;;;;;;;;5094411;28;20306;-75
2023/02/06 08:09:35;;;;;;;64.23;22.20;;;;;;;;;;5094631;28;20221;-75
2023/02/06 08:12:03;;;;;;;65.03;27.67;;;;;;;;;;5094502;28;20211;-75
2023/02/06 08:14:30;;;;;;;41.67;15.43;;;;;;;;;;5094635;28;20317;-74
2023/02/06 08:16:57;;;;;;;48.07;18.87;;;;;;;;;;5094339;28;20230;-74
2023/02/06 08:19:25;;;;;;;53.63;18.37;;;;;;;;;;5094677;28;20245;-75
2023/02/06 08:21:54;;;;;;;65.53;23.87;;;;;;;;;;5094593;28;20311;-75
2023/02/06 08:24:21;;;;;;;58.73;19.90;;;;;;;;;;5094156;28;20292;-76
2023/02/06 08:26:48;;;;;;;38.20;13.73;;;;;;;;;;5094574;28;20232;-74
2023/02/06 08:29:15;;;;;;;41.63;13.50;;;;;;;;;;5094291;28;20288;-75
2023/02/06 08:31:43;;;;;;;59.27;23.03;;;;;;;;;;5094049;28;20692;-75
2023/02/06 08:34:11;;;;;;;36.63;13.07;;;;;;;;;;5094000;28;20314;-74
2023/02/06 08:36:38;;;;;;;51.43;21.43;;;;;;;;;;5093914;28;20296;-75
2023/02/06 08:39:07;;;;;;;48.40;17.77;;;;;;;;;;5093621;28;20720;-74
2023/02/06 08:41:35;;;;;;;53.50;23.20;;;;;;;;;;5094277;28;20746;-74
2023/02/06 08:44:03;;;;;;;39.30;11.20;;;;;;;;;;5094202;28;20285;-74
2023/02/06 08:46:31;;;;;;;45.90;20.63;;;;;;;;;;5093884;28;20200;-75
2023/02/06 08:48:58;;;;;;;72.53;32.37;;;;;;;;;;5093831;28;20721;-75
2023/02/06 08:51:26;;;;;;;41.67;12.93;;;;;;;;;;5093814;28;20631;-75
2023/02/06 08:53:55;;;;;;;36.63;14.30;;;;;;;;;;5093947;28;20285;-75
2023/02/06 08:56:24;;;;;;;31.87;9.30;;;;;;;;;;5094084;28;20294;-75
2023/02/06 08:58:52;;;;;;;80.90;36.87;;;;;;;;;;5093873;28;20197;-75
2023/02/06 09:01:20;;;;;;;28.17;9.37;;;;;;;;;;5093696;28;20266;-75
2023/02/06 09:03:47;;;;;;;47.50;21.07;;;;;;;;;;5093606;28;20233;-75
2023/02/06 09:06:15;;;;;;;48.10;20.33;;;;;;;;;;5092625;28;20231;-75
2023/02/06 09:08:42;;;;;;;24.37;9.13;;;;;;;;;;5092978;28;20659;-75
2023/02/06 09:11:10;;;;;;;38.93;15.13;;;;;;;;;;5093253;28;20287;-75
2023/02/06 09:13:39;;;;;;;29.20;13.00;;;;;;;;;;5093354;28;20290;-75
2023/02/06 09:16:06;;;;;;;31.60;12.83;;;;;;;;;;5093549;28;20286;-74
2023/02/06 09:18:34;;;;;;;25.67;9.93;;;;;;;;;;5093039;28;20242;-75
2023/02/06 09:21:05;;;;;;;32.60;14.27;;;;;;;;;;5093276;28;20226;-75
2023/02/06 09:23:32;;;;;;;21.13;8.50;;;;;;;;;;5093067;28;20293;-75
2023/02/06 09:25:59;;;;;;;41.00;18.43;;;;;;;;;;5093086;28;20259;-74
2023/02/06 09:28:27;;;;;;;31.03;10.83;;;;;;;;;;5092839;28;20227;-75
2023/02/06 09:30:55;;;;;;;28.80;11.20;;;;;;;;;;5093107;28;20192;-75
2023/02/06 09:33:24;;;;;;;31.80;13.27;;;;;;;;;;5092915;28;20221;-74
2023/02/06 09:35:51;;;;;;;25.87;10.43;;;;;;;;;;5092658;28;20705;-76
2023/02/06 09:38:18;;;;;;;25.97;8.27;;;;;;;;;;5092660;28;20642;-75
2023/02/06 09:40:46;;;;;;;23.33;7.27;;;;;;;;;;5092833;28;20626;-75
2023/02/06 09:43:14;;;;;;;20.00;7.83;;;;;;;;;;5092730;28;20994;-75
2023/02/06 09:45:41;;;;;;;19.70;6.80;;;;;;;;;;5092849;28;20297;-75
2023/02/06 09:48:15;;;;;;;17.87;6.27;;;;;;;;;;5093104;28;20284;-75
2023/02/06 09:50:49;;;;;;;25.33;10.20;;;;;;;;;;5092838;28;20289;-74
2023/02/06 09:53:20;;;;;;;19.30;8.83;;;;;;;;;;5092199;28;20282;-75
2023/02/06 09:55:49;;;;;;;18.67;6.80;;;;;;;;;;5092288;28;20740;-76
2023/02/06 09:58:22;;;;;;;24.63;6.63;;;;;;;;;;5092592;28;20302;-75
2023/02/06 10:00:52;;;;;;;20.47;7.27;;;;;;;;;;5092245;28;20570;-75
2023/02/06 10:03:30;;;;;;;25.07;8.77;;;;;;;;;;5092232;28;20289;-75
2023/02/06 10:06:02;;;;;;;23.70;9.40;;;;;;;;;;5091900;28;20551;-75
2023/02/06 10:08:31;;;;;;;18.63;6.80;;;;;;;;;;5092902;28;20539;-75
2023/02/06 10:10:59;;;;;;;33.80;13.30;;;;;;;;;;5092465;28;20299;-75
2023/02/06 10:13:29;;;;;;;20.07;9.57;;;;;;;;;;5092199;28;20237;-74
2023/02/06 10:15:59;;;;;;;23.10;8.67;;;;;;;;;;5092358;28;20260;-75
2023/02/06 10:18:30;;;;;;;24.33;8.53;;;;;;;;;;5092256;28;20225;-75
2023/02/06 10:20:59;;;;;;;19.37;6.17;;;;;;;;;;5091557;28;20291;-75
2023/02/06 10:23:29;;;;;;;19.30;6.50;;;;;;;;;;5092345;28;20277;-75
2023/02/06 10:26:02;;;;;;;21.00;5.90;;;;;;;;;;5092202;28;20764;-75
2023/02/06 10:28:31;;;;;;;20.70;6.50;;;;;;;;;;5092266;28;20281;-75
2023/02/06 10:31:04;;;;;;;17.60;6.40;;;;;;;;;;5091960;28;20195;-75
2023/02/06 10:33:35;;;;;;;15.50;5.70;;;;;;;;;;5091841;28;20289;-75
2023/02/06 10:36:04;;;;;;;18.03;6.40;;;;;;;;;;5091755;28;20317;-75
2023/02/06 10:38:48;;;;;;;20.73;5.50;;;;;;;;;;5092001;28;20293;-75
2023/02/06 10:41:20;;;;;;;14.00;5.47;;;;;;;;;;5091825;28;20293;-75
2023/02/06 10:43:50;;;;;;;19.30;5.37;;;;;;;;;;5092046;28;20281;-75
2023/02/06 10:46:28;;;;;;;23.30;5.37;;;;;;;;;;5091735;28;20680;-76
2023/02/06 10:49:00;;;;;;;14.17;4.70;;;;;;;;;;5091494;28;20198;-75
2023/02/06 10:51:30;;;;;;;14.10;4.83;;;;;;;;;;5091145;28;20727;-75
2023/02/06 10:53:59;;;;;;;12.60;4.67;;;;;;;;;;5091982;28;20277;-75
2023/02/06 10:56:27;;;;;;;14.37;5.27;;;;;;;;;;5091874;28;20277;-75
2023/02/06 10:58:56;;;;;;;15.70;5.40;;;;;;;;;;5091461;28;20749;-75
2023/02/06 11:01:25;;;;;;;12.73;5.07;;;;;;;;;;5091454;28;20285;-75
2023/02/06 11:03:55;;;;;;;12.90;5.07;;;;;;;;;;5091416;28;20682;-74
2023/02/06 11:06:25;;;;;;;17.33;5.30;;;;;;;;;;5091609;28;20289;-76
2023/02/06 11:08:52;;;;;;;17.43;4.83;;;;;;;;;;5091670;28;20194;-74
2023/02/06 11:11:21;;;;;;;18.47;5.30;;;;;;;;;;5091156;28;20832;-75
2023/02/06 11:13:50;;;;;;;17.33;5.37;;;;;;;;;;5091601;28;20194;-76
2023/02/06 11:16:21;;;;;;;14.53;4.47;;;;;;;;;;5091271;28;20226;-75
2023/02/06 11:18:49;;;;;;;19.83;5.30;;;;;;;;;;5091002;28;20762;-76
2023/02/06 11:21:37;;;;;;;13.30;5.10;;;;;;;;;;5091110;28;20730;-75
2023/02/06 11:24:12;;;;;;;13.40;4.53;;;;;;;;;;5091164;28;20281;-75
2023/02/06 11:26:41;;;;;;;17.57;5.60;;;;;;;;;;5091118;28;20321;-75
2023/02/06 11:29:10;;;;;;;15.17;5.07;;;;;;;;;;5091773;28;20771;-76
2023/02/06 11:31:40;;;;;;;14.30;4.53;;;;;;;;;;5095638;28;20196;-75
2023/02/06 11:34:07;;;;;;;17.60;5.00;;;;;;;;;;5094879;28;20232;-75
2023/02/06 11:36:37;;;;;;;14.53;4.77;;;;;;;;;;5095352;28;20634;-74
2023/02/06 11:39:05;;;;;;;20.10;5.10;;;;;;;;;;5095070;28;20238;-75
2023/02/06 11:41:33;;;;;;;13.90;4.80;;;;;;;;;;5095418;28;20277;-75
2023/02/06 11:44:05;;;;;;;19.13;5.57;;;;;;;;;;5095190;28;20285;-75
2023/02/06 11:46:34;;;;;;;14.13;4.77;;;;;;;;;;5095142;28;20207;-75
2023/02/06 11:49:02;;;;;;;14.93;4.80;;;;;;;;;;5095046;28;20198;-75
2023/02/06 11:51:46;;;;;;;11.97;4.80;;;;;;;;;;5094831;28;20240;-74
2023/02/06 11:54:20;;;;;;;16.87;5.30;;;;;;;;;;5095638;28;20240;-75
2023/02/06 11:56:57;;;;;;;11.87;4.87;;;;;;;;;;5094807;28;20289;-74
2023/02/06 11:59:26;;;;;;;12.33;4.77;;;;;;;;;;5094994;28;20281;-76
2023/02/06 12:01:53;;;;;;;16.83;4.90;;;;;;;;;;5094954;28;20203;-75
2023/02/06 12:04:23;;;;;;;14.40;4.63;;;;;;;;;;5094437;28;20230;-74
2023/02/06 12:06:53;;;;;;;10.47;4.37;;;;;;;;;;5094783;28;20194;-75
2023/02/06 12:09:20;;;;;;;13.77;4.70;;;;;;;;;;5094820;28;20234;-76
2023/02/06 12:11:50;;;;;;;12.93;4.67;;;;;;;;;;5094349;28;20230;-75
2023/02/06 12:14:22;;;;;;;20.63;5.30;;;;;;;;;;5094547;28;20198;-76
2023/02/06 12:16:50;;;;;;;12.77;4.87;;;;;;;;;;5094211;28;20281;-75
2023/02/06 12:19:18;;;;;;;13.90;4.90;;;;;;;;;;5094252;28;20227;-75
2023/02/06 12:21:47;;;;;;;10.67;4.77;;;;;;;;;;5094603;28;20222;-75
2023/02/06 12:24:20;;;;;;;12.87;5.13;;;;;;;;;;5094353;28;20281;-74
2023/02/06 12:26:48;;;;;;;15.67;4.63;;;;;;;;;;5094267;28;20258;-76
2023/02/06 12:29:17;;;;;;;10.03;4.20;;;;;;;;;;5094178;28;20218;-75
2023/02/06 12:31:49;;;;;;;10.60;4.57;;;;;;;;;;5094206;28;20230;-75
2023/02/06 12:34:18;;;;;;;11.90;4.73;;;;;;;;;;5094418;28;20200;-75
2023/02/06 12:36:54;;;;;;;11.20;4.50;;;;;;;;;;5094061;28;20232;-75
2023/02/06 12:39:22;;;;;;;14.03;4.43;;;;;;;;;;5094126;28;20280;-75
2023/02/06 12:41:57;;;;;;;11.07;4.60;;;;;;;;;;5092374;28;20285;-75
2023/02/06 12:44:26;;;;;;;13.30;4.50;;;;;;;;;;5093651;28;20753;-75
2023/02/06 12:46:58;;;;;;;12.80;4.90;;;;;;;;;;5093902;28;20190;-75
2023/02/06 12:49:28;;;;;;;10.50;4.53;;;;;;;;;;5094033;28;20226;-75
2023/02/06 12:51:56;;;;;;;12.93;4.57;;;;;;;;;;5093883;28;20833;-75
2023/02/06 12:54:25;;;;;;;14.13;4.83;;;;;;;;;;5093818;28;20233;-75
2023/02/06 12:56:56;;;;;;;14.57;4.60;;;;;;;;;;5094084;28;20286;-75
2023/02/06 12:59:44;;;;;;;11.50;4.30;;;;;;;;;;5093606;28;20194;-75
2023/02/06 13:02:21;;;;;;;17.47;4.77;;;;;;;;;;5093594;28;20736;-75
2023/02/06 13:04:48;;;;;;;12.07;4.80;;;;;;;;;;5093827;28;20190;-75
2023/02/06 13:07:18;;;;;;;15.63;4.83;;;;;;;;;;5093204;28;20289;-75
2023/02/06 13:09:48;;;;;;;14.43;4.80;;;;;;;;;;5093943;28;20199;-75
2023/02/06 13:12:16;;;;;;;12.47;4.20;;;;;;;;;;5093224;28;20293;-75
2023/02/06 13:14:46;;;;;;;12.07;4.20;;;;;;;;;;5093069;28;20205;-75
2023/02/06 13:17:18;;;;;;;14.67;4.70;;;;;;;;;;5093267;28;20285;-76
2023/02/06 13:20:02;;;;;;;10.03;4.50;;;;;;;;;;5093665;28;20218;-75
2023/02/06 13:22:42;;;;;;;13.37;4.43;;;;;;;;;;5093237;28;20721;-75
2023/02/06 13:25:28;;;;;;;12.73;4.57;;;;;;;;;;5093306;28;20872;-76
2023/02/06 13:27:55;;;;;;;13.70;5.00;;;;;;;;;;5092797;28;20285;-75
2023/02/06 13:30:47;;;;;;;12.13;4.50;;;;;;;;;;5092737;28;20281;-75
2023/02/06 13:33:17;;;;;;;12.50;4.60;;;;;;;;;;5092616;28;20204;-76
2023/02/06 13:35:55;;;;;;;12.53;4.17;;;;;;;;;;5092975;28;20311;-74
2023/02/06 13:38:28;;;;;;;13.20;4.53;;;;;;;;;;5093092;28;20730;-74
2023/02/06 13:41:13;;;;;;;10.47;4.80;;;;;;;;;;5093021;28;20193;-75
2023/02/06 13:43:41;;;;;;;16.10;5.00;;;;;;;;;;5093120;28;20237;-75
2023/02/06 13:46:11;;;;;;;13.23;4.63;;;;;;;;;;5093033;28;20226;-75
2023/02/06 13:48:47;;;;;;;15.30;5.00;;;;;;;;;;5093008;28;20222;-76
2023/02/06 13:51:29;;;;;;;14.53;4.80;;;;;;;;;;5092711;28;20289;-76
2023/02/06 13:54:12;;;;;;;13.80;5.13;;;;;;;;;;5090642;28;20282;-75
2023/02/06 13:56:42;;;;;;;13.47;4.97;;;;;;;;;;5092249;28;20269;-75
2023/02/06 13:59:14;;;;;;;14.23;4.63;;;;;;;;;;5092032;28;20226;-75
2023/02/06 14:01:41;;;;;;;12.87;4.50;;;;;;;;;;5092468;28;20241;-75
2023/02/06 14:04:11;;;;;;;12.07;4.53;;;;;;;;;;5092629;28;20245;-75
2023/02/06 14:06:55;;;;;;;12.33;4.40;;;;;;;;;;5092451;28;20217;-75
2023/02/06 14:09:34;;;;;;;16.60;5.20;;;;;;;;;;5092626;28;20190;-75
2023/02/06 14:14:58;;;;;;;12.33;4.27;;;;;;;;;;5092781;28;20248;-75
2023/02/06 14:17:33;;;;;;;10.97;4.40;;;;;;;;;;5092305;28;20259;-75
2023/02/06 14:20:05;;;;;;;12.53;4.90;;;;;;;;;;5092105;28;20259;-75
2023/02/06 14:22:37;;;;;;;13.70;4.87;;;;;;;;;;5091934;28;20199;-76
2023/02/06 14:25:16;;;;;;;13.10;5.00;;;;;;;;;;5092190;28;20221;-75
2023/02/06 14:27:51;;;;;;;12.27;4.40;;;;;;;;;;5091841;28;20685;-75
2023/02/06 14:30:22;;;;;;;11.93;4.90;;;;;;;;;;5092118;28;20194;-75
2023/02/06 14:32:55;;;;;;;12.33;4.57;;;;;;;;;;5092020;28;20194;-76
2023/02/06 14:35:39;;;;;;;10.67;4.50;;;;;;;;;;5091889;28;20229;-75
2023/02/06 14:38:14;;;;;;;11.63;4.80;;;;;;;;;;5092093;28;20202;-74
2023/02/06 14:40:43;;;;;;;12.27;4.73;;;;;;;;;;5091588;28;20233;-75
2023/02/06 14:43:14;;;;;;;12.70;5.03;;;;;;;;;;5091834;28;20194;-75